Time;durP1;ratioP1;P1;durP2;ratioP2;P2;SDS_P1;SDS_P2;PMS_P1;PMS_P2;Temp;Humidity;BMP_temperature;BMP_pressure;BME280_temperature;BME280_humidity;BME280_pressure;Samples;Min_cycle;Max_cycle;Signal;HPM_P1;HPM_P2
2021/03/21 00:01:29;;;;;;;4.20;2.60;;;-6.40;99.90;-8.30;97181.00;;;;5083638;28;20199;-66
2021/03/21 00:04:17;;;;;;;5.53;3.65;;;-6.40;99.90;-8.40;97174.00;;;;5065050;28;20199;-65
2021/03/21 00:07:05;;;;;;;7.32;3.53;;;-6.50;99.90;-8.20;97181.00;;;;5064096;28;20220;-66
2021/03/21 00:09:54;;;;;;;5.35;4.40;;;-6.50;99.90;-8.10;97178.00;;;;5070796;28;20206;-64
2021/03/21 00:12:42;;;;;;;4.97;4.20;;;-6.40;99.90;-8.00;97176.00;;;;5086978;28;20199;-65
2021/03/21 00:15:30;;;;;;;5.75;4.35;;;-6.30;99.90;-8.10;97176.00;;;;5069412;28;20241;-65
2021/03/21 00:18:22;;;;;;;7.03;4.25;;;-6.30;99.90;-8.10;97182.00;;;;5068570;28;20236;-65
2021/03/21 00:21:13;;;;;;;4.00;3.17;;;-6.30;99.90;-8.10;97169.00;;;;5068756;28;20683;-64
2021/03/21 00:24:01;;;;;;;4.85;3.50;;;-6.30;99.90;-8.10;97159.00;;;;5070080;28;20607;-67
2021/03/21 00:26:49;;;;;;;5.20;4.20;;;-6.00;99.90;-8.10;97154.00;;;;5067809;28;20207;-67
2021/03/21 00:29:38;;;;;;;4.38;3.75;;;-6.30;99.90;-8.10;97156.00;;;;5068937;28;20215;-65
2021/03/21 00:32:25;;;;;;;4.25;3.85;;;-6.30;99.90;-8.30;97146.00;;;;5067742;28;20239;-65
2021/03/21 00:35:14;;;;;;;5.07;4.13;;;-6.30;99.90;-8.40;97140.00;;;;5066673;28;20231;-67
2021/03/21 00:38:06;;;;;;;4.45;3.35;;;-6.40;99.90;-8.50;97140.00;;;;5067886;28;20224;-67
2021/03/21 00:40:55;;;;;;;4.00;3.47;;;-6.50;99.90;-8.50;97143.00;;;;5067551;28;20211;-67
2021/03/21 00:43:44;;;;;;;3.50;2.92;;;-6.60;99.90;-8.60;97130.00;;;;5079378;28;20200;-66
2021/03/21 00:46:32;;;;;;;3.92;3.63;;;-6.60;99.90;-8.70;97133.00;;;;5075144;28;20673;-66
2021/03/21 00:49:20;;;;;;;5.60;4.22;;;-6.50;99.90;-8.80;97126.00;;;;5075381;28;20207;-66
2021/03/21 00:52:08;;;;;;;3.85;3.40;;;-6.70;99.90;-8.80;97117.00;;;;5070196;28;20659;-66
2021/03/21 00:54:56;;;;;;;3.60;3.22;;;-6.80;99.90;-8.90;97120.00;;;;5068826;28;20715;-65
2021/03/21 00:57:48;;;;;;;6.25;4.68;;;-6.90;99.90;-8.90;97106.00;;;;5071010;28;20219;-66
2021/03/21 01:00:41;;;;;;;4.38;3.47;;;-7.00;99.90;-8.80;97107.00;;;;5069583;28;20230;-65
2021/03/21 01:03:29;;;;;;;3.30;2.72;;;-7.00;99.90;-8.90;97111.00;;;;5083687;28;20682;-65
2021/03/21 01:06:17;;;;;;;4.10;3.65;;;-7.00;99.90;-9.10;97103.00;;;;5067167;28;20214;-66
2021/03/21 01:09:09;;;;;;;3.13;2.53;;;-7.00;99.90;-9.10;97092.00;;;;5068220;28;20219;-66
2021/03/21 01:11:57;;;;;;;3.20;2.97;;;-7.10;99.90;-9.30;97101.00;;;;5088175;28;20593;-67
2021/03/21 01:14:45;;;;;;;4.30;3.42;;;-7.20;99.90;-9.30;97099.00;;;;5071735;28;20224;-67
2021/03/21 01:17:34;;;;;;;4.38;3.03;;;-7.30;99.90;-9.20;97105.00;;;;5067029;28;20231;-67
2021/03/21 01:20:25;;;;;;;5.65;4.55;;;-7.30;99.90;-9.00;97096.00;;;;5066435;28;20200;-67
2021/03/21 01:23:14;;;;;;;4.60;4.18;;;-7.30;99.90;-9.10;97091.00;;;;5066798;28;20571;-67
2021/03/21 01:26:02;;;;;;;3.33;3.03;;;-7.20;99.90;-9.20;97108.00;;;;5067497;28;20729;-65
2021/03/21 01:28:51;;;;;;;3.63;3.33;;;-7.20;99.90;-9.10;97092.00;;;;5066829;28;20234;-67
2021/03/21 01:31:39;;;;;;;5.30;2.97;;;-7.20;99.90;-9.20;97092.00;;;;5067835;28;20208;-67
2021/03/21 01:34:29;;;;;;;4.70;3.40;;;-7.20;99.90;-9.20;97086.00;;;;5067323;28;20691;-67
2021/03/21 01:37:17;;;;;;;4.93;4.45;;;-7.30;99.90;-9.30;97082.00;;;;5066853;28;20224;-67
2021/03/21 01:40:07;;;;;;;4.03;3.58;;;-7.30;99.90;-9.30;97086.00;;;;5067145;28;20208;-66
2021/03/21 01:42:55;;;;;;;3.05;2.78;;;-7.30;99.90;-9.40;97076.00;;;;5067258;28;20204;-67
2021/03/21 01:45:47;;;;;;;3.78;3.30;;;-7.40;99.90;-9.50;97083.00;;;;5067494;28;20207;-67
2021/03/21 01:48:43;;;;;;;4.25;3.85;;;-7.50;99.90;-9.40;97073.00;;;;5067887;28;20224;-67
2021/03/21 01:51:36;;;;;;;4.15;3.30;;;-7.50;99.90;-9.40;97067.00;;;;5089255;28;20246;-66
2021/03/21 01:54:25;;;;;;;6.78;3.90;;;-7.50;99.90;-9.40;97063.00;;;;5077542;28;20211;-67
2021/03/21 01:57:13;;;;;;;4.65;3.67;;;-7.50;99.90;-9.40;97068.00;;;;5067463;28;20220;-66
2021/03/21 02:00:01;;;;;;;9.05;3.03;;;-7.50;99.90;-9.50;97062.00;;;;5067321;28;20204;-66
2021/03/21 02:02:49;;;;;;;3.63;3.33;;;-7.50;99.90;-9.50;97062.00;;;;5067201;28;20206;-67
2021/03/21 02:05:39;;;;;;;3.53;3.03;;;-7.50;99.90;-9.60;97050.00;;;;5067061;28;20196;-66
2021/03/21 02:08:45;;;;;;;4.07;3.17;;;-7.50;99.90;-9.80;97044.00;;;;5066493;28;20274;-66
2021/03/21 02:11:49;;;;;;;3.90;3.60;;;-7.60;99.90;-9.80;97041.00;;;;5066319;28;20200;-66
2021/03/21 02:14:46;;;;;;;3.25;3.05;;;-7.70;99.90;-9.80;97044.00;;;;5066706;28;20200;-67
2021/03/21 02:17:41;;;;;;;3.90;3.55;;;-7.70;99.90;-9.90;97023.00;;;;5066243;28;20277;-66
2021/03/21 02:21:08;;;;;;;4.30;3.90;;;-7.80;99.90;-9.80;97032.00;;;;5064995;28;20588;-67
2021/03/21 02:24:55;;;;;;;2.90;2.65;;;-7.90;99.90;-9.80;97046.00;;;;5065820;28;20210;-65
2021/03/21 02:28:10;;;;;;;4.22;3.65;;;-7.80;99.90;-9.80;97038.00;;;;5065887;28;20621;-67
2021/03/21 02:31:03;;;;;;;4.20;3.78;;;-7.80;99.90;-9.90;97023.00;;;;5066012;28;20216;-66
2021/03/21 02:33:57;;;;;;;3.88;2.83;;;-7.80;99.90;-9.80;97026.00;;;;5077344;28;20675;-65
2021/03/21 02:36:52;;;;;;;3.45;2.78;;;-7.80;99.90;-9.80;97020.00;;;;5076533;28;20640;-66
2021/03/21 02:39:52;;;;;;;5.13;3.25;;;-7.80;99.90;-10.00;97023.00;;;;5065523;28;20594;-66
2021/03/21 02:42:46;;;;;;;3.13;2.85;;;-7.90;99.90;-9.90;97025.00;;;;5065376;28;20207;-66
2021/03/21 02:45:37;;;;;;;4.20;3.83;;;-7.90;99.90;-9.80;97022.00;;;;5065898;28;20223;-66
2021/03/21 02:48:30;;;;;;;4.03;3.65;;;-7.90;99.90;-9.90;97009.00;;;;5065363;28;20230;-65
2021/03/21 02:51:23;;;;;;;2.70;2.50;;;-7.90;99.90;-10.00;97003.00;;;;5087053;28;20202;-67
2021/03/21 02:54:14;;;;;;;4.75;4.25;;;-7.00;99.90;-9.90;97011.00;;;;5075191;28;20216;-65
2021/03/21 02:57:09;;;;;;;3.80;3.42;;;-8.00;99.90;-9.90;96997.00;;;;5065326;28;20224;-66
2021/03/21 02:59:59;;;;;;;3.85;3.53;;;-8.00;99.90;-9.90;97005.00;;;;5064975;28;20219;-65
2021/03/21 03:02:51;;;;;;;4.38;3.97;;;-8.00;99.90;-10.10;96990.00;;;;5064332;28;20431;-66
2021/03/21 03:05:44;;;;;;;5.30;3.67;;;-8.00;99.90;-10.10;97002.00;;;;5066448;28;20257;-65
2021/03/21 03:08:39;;;;;;;3.42;3.13;;;-8.00;99.90;-10.10;96987.00;;;;5064021;28;20687;-66
2021/03/21 03:11:36;;;;;;;6.13;3.67;;;-8.10;99.90;-10.10;96981.00;;;;5066321;28;20261;-67
2021/03/21 03:14:32;;;;;;;3.70;3.30;;;-8.10;99.90;-10.00;96979.00;;;;5065742;28;20794;-65
2021/03/21 03:17:28;;;;;;;6.85;3.25;;;-8.10;99.90;-9.90;96990.00;;;;5065128;28;20242;-65
2021/03/21 03:20:24;;;;;;;4.97;3.53;;;-8.10;99.90;-9.90;96972.00;;;;5064332;28;20223;-65
2021/03/21 03:23:24;;;;;;;4.93;3.97;;;-8.00;99.90;-10.30;96976.00;;;;5064960;28;20203;-65
2021/03/21 03:26:22;;;;;;;3.70;3.30;;;-8.10;99.90;-10.40;96987.00;;;;5077152;28;20216;-65
2021/03/21 03:29:17;;;;;;;2.67;2.45;;;-8.10;99.90;-10.30;96971.00;;;;5078946;28;20203;-65
2021/03/21 03:32:09;;;;;;;5.15;4.00;;;-8.20;99.90;-10.20;96974.00;;;;5064907;28;20294;-64
2021/03/21 03:34:58;;;;;;;3.28;3.00;;;-8.20;99.90;-10.30;96963.00;;;;5065075;28;20265;-66
2021/03/21 03:37:46;;;;;;;3.45;3.15;;;-8.20;99.90;-10.10;96963.00;;;;5063032;28;20231;-66
2021/03/21 03:40:38;;;;;;;4.25;2.75;;;-8.20;99.90;-10.10;96966.00;;;;5065775;28;20204;-66
2021/03/21 03:43:38;;;;;;;5.32;4.47;;;-8.20;99.90;-10.10;96959.00;;;;5064608;28;20220;-66
2021/03/21 03:46:34;;;;;;;3.20;2.95;;;-8.20;99.90;-10.00;96963.00;;;;5064226;28;20204;-66
2021/03/21 03:49:35;;;;;;;4.47;3.72;;;-8.10;99.90;-10.20;96963.00;;;;5071233;28;20199;-65
2021/03/21 03:52:59;;;;;;;3.85;3.53;;;-8.20;99.90;-10.10;96946.00;;;;5065039;28;20211;-68
2021/03/21 03:55:54;;;;;;;3.88;2.67;;;-8.20;99.90;-10.20;96948.00;;;;5065620;28;20227;-67
2021/03/21 03:58:58;;;;;;;3.78;3.42;;;-8.20;99.90;-10.00;96954.00;;;;5074240;28;20227;-65
2021/03/21 04:01:53;;;;;;;6.53;4.00;;;-8.20;99.90;-10.10;96943.00;;;;5068417;28;20196;-67
2021/03/21 04:04:50;;;;;;;4.90;4.45;;;-8.20;99.90;-10.20;96938.00;;;;5064951;28;20210;-68
2021/03/21 04:07:44;;;;;;;3.75;3.20;;;-8.20;99.90;-10.20;96934.00;;;;5065664;28;20265;-66
2021/03/21 04:10:40;;;;;;;10.68;9.73;;;-8.20;99.90;-10.20;96929.00;;;;5064827;28;20219;-64
2021/03/21 04:13:37;;;;;;;34.95;27.13;;;-8.20;99.90;-10.20;96927.00;;;;5063757;28;20597;-66
2021/03/21 04:16:31;;;;;;;28.58;25.55;;;-8.20;99.90;-10.20;96926.00;;;;5063324;28;20228;-65
2021/03/21 04:19:23;;;;;;;6.07;5.47;;;-8.20;99.90;-10.50;96936.00;;;;5065097;28;20207;-65
2021/03/21 04:22:18;;;;;;;4.47;4.10;;;-8.30;99.90;-10.60;96927.00;;;;5065159;28;20215;-66
2021/03/21 04:25:13;;;;;;;4.68;4.28;;;-8.40;99.90;-10.60;96929.00;;;;5065693;28;20203;-66
2021/03/21 04:28:08;;;;;;;5.28;4.18;;;-8.50;99.90;-10.50;96921.00;;;;5064583;28;20698;-66
2021/03/21 04:31:02;;;;;;;6.15;4.22;;;-8.50;99.90;-10.40;96912.00;;;;5064639;28;20192;-66
2021/03/21 04:33:55;;;;;;;6.43;4.20;;;-7.70;99.90;-10.50;96917.00;;;;5064257;28;20208;-67
2021/03/21 04:36:46;;;;;;;4.18;3.42;;;-8.40;99.90;-10.50;96927.00;;;;5063186;28;20232;-67
2021/03/21 04:39:36;;;;;;;3.53;3.22;;;-8.50;99.90;-10.40;96921.00;;;;5078900;28;20682;-65
2021/03/21 04:42:31;;;;;;;5.28;4.35;;;-8.40;99.90;-10.30;96909.00;;;;5080078;28;20897;-65
2021/03/21 04:45:24;;;;;;;4.20;3.80;;;-8.40;99.90;-10.40;96919.00;;;;5077652;28;20207;-64
2021/03/21 04:48:18;;;;;;;4.15;3.75;;;-8.40;99.90;-10.40;96914.00;;;;5068079;28;20224;-67
2021/03/21 04:51:13;;;;;;;3.63;3.33;;;-8.40;99.90;-10.40;96910.00;;;;5081992;28;20206;-67
2021/03/21 04:54:05;;;;;;;5.10;4.30;;;-8.40;99.90;-10.50;96914.00;;;;5074247;28;20714;-67
2021/03/21 04:56:59;;;;;;;3.15;2.85;;;-8.40;99.90;-10.70;96906.00;;;;5084855;28;20721;-66
2021/03/21 04:59:47;;;;;;;4.78;3.90;;;-8.50;99.90;-10.60;96912.00;;;;5086226;28;20196;-67
2021/03/21 05:02:37;;;;;;;6.20;3.70;;;-8.50;99.90;-10.50;96906.00;;;;5085686;28;20205;-65
2021/03/21 05:05:30;;;;;;;4.85;3.83;;;-8.50;99.90;-10.60;96909.00;;;;5087035;28;20207;-64
2021/03/21 05:08:23;;;;;;;4.28;3.30;;;-8.60;99.90;-10.50;96912.00;;;;5078170;28;20236;-65
2021/03/21 05:11:11;;;;;;;4.72;3.70;;;-8.60;99.90;-10.60;96903.00;;;;5085905;28;20210;-65
2021/03/21 05:14:03;;;;;;;6.32;4.13;;;-8.60;99.90;-10.70;96897.00;;;;5079332;28;20597;-65
2021/03/21 05:17:14;;;;;;;4.78;3.38;;;-8.60;99.90;-10.70;96899.00;;;;5072639;28;20234;-65
2021/03/21 05:20:15;;;;;;;5.85;4.10;;;-8.70;99.90;-10.60;96895.00;;;;5088041;28;20232;-66
2021/03/21 05:23:17;;;;;;;3.17;2.97;;;-8.70;99.90;-10.50;96901.00;;;;5082941;28;20264;-65
2021/03/21 05:26:19;;;;;;;7.90;4.80;;;-8.60;99.90;-10.30;96899.00;;;;5070116;28;20207;-66
2021/03/21 05:29:37;;;;;;;2.40;2.22;;;-8.50;99.90;-10.40;96890.00;;;;5067715;28;20221;-67
2021/03/21 05:32:26;;;;;;;4.18;3.78;;;-8.50;99.90;-10.20;96901.00;;;;5083481;28;20598;-66
2021/03/21 05:35:20;;;;;;;4.28;3.53;;;-8.40;99.90;-10.00;96906.00;;;;5075059;28;20203;-65
2021/03/21 05:38:34;;;;;;;4.28;3.88;;;-8.30;99.90;-10.10;96904.00;;;;5086095;28;20219;-66
2021/03/21 05:41:53;;;;;;;4.00;3.75;;;-8.20;99.90;-10.20;96891.00;;;;5087052;28;20277;-67
2021/03/21 05:45:13;;;;;;;7.32;4.35;;;-8.20;99.90;-10.10;96903.00;;;;5086161;28;20286;-66
2021/03/21 05:48:34;;;;;;;5.78;4.20;;;-8.20;99.90;-10.00;96900.00;;;;5064649;28;20223;-65
2021/03/21 05:52:09;;;;;;;5.03;3.75;;;-8.20;99.90;-9.80;96886.00;;;;5086449;28;20203;-66
2021/03/21 05:55:50;;;;;;;2.63;2.42;;;-8.00;99.90;-9.50;96894.00;;;;5073657;28;20204;-66
2021/03/21 05:59:12;;;;;;;7.20;3.30;;;-7.90;99.90;-9.30;96897.00;;;;5080840;28;20228;-67
2021/03/21 06:02:59;;;;;;;5.18;4.63;;;-7.70;99.90;-9.40;96887.00;;;;5065930;28;20204;-67
2021/03/21 06:06:38;;;;;;;2.00;1.90;;;-7.60;99.90;-9.30;96877.00;;;;5066514;28;20200;-66
2021/03/21 06:09:56;;;;;;;7.72;5.38;;;-7.50;99.90;-9.40;96881.00;;;;5066035;28;20215;-66
2021/03/21 06:13:05;;;;;;;4.35;3.70;;;-7.50;99.90;-9.20;96872.00;;;;5067301;28;20663;-66
2021/03/21 06:16:23;;;;;;;17.75;10.18;;;-7.40;99.90;-9.00;96870.00;;;;5066149;28;20231;-67
2021/03/21 06:19:54;;;;;;;12.43;7.18;;;-7.30;99.90;-9.00;96866.00;;;;5065332;28;20639;-67
2021/03/21 06:23:24;;;;;;;11.00;6.38;;;-7.20;99.90;-8.90;96866.00;;;;5067008;28;20211;-66
2021/03/21 06:26:20;;;;;;;7.13;5.30;;;-7.10;99.90;-8.80;96854.00;;;;5038602;28;20530;-66
2021/03/21 06:30:04;;;;;;;5.70;4.97;;;-7.10;99.90;-8.90;96858.00;;;;5066071;28;20856;-66
2021/03/21 06:33:24;;;;;;;8.68;5.63;;;-7.00;99.90;-8.70;96854.00;;;;5069704;28;20245;-65
2021/03/21 06:36:23;;;;;;;4.07;3.60;;;-7.00;99.90;-8.50;96850.00;;;;5066590;28;20223;-67
2021/03/21 06:39:50;;;;;;;4.93;3.90;;;-6.90;99.90;-8.20;96866.00;;;;5066496;28;20203;-67
2021/03/21 06:43:31;;;;;;;6.53;4.43;;;-6.70;99.90;-8.10;96854.00;;;;5066528;28;20212;-65
2021/03/21 06:47:15;;;;;;;5.25;4.20;;;-6.50;99.90;-7.90;96857.00;;;;5065982;28;20215;-67
2021/03/21 06:50:39;;;;;;;5.35;3.47;;;-6.40;99.90;-7.60;96857.00;;;;5065170;28;20219;-65
2021/03/21 06:53:38;;;;;;;8.57;5.10;;;-6.20;99.90;-7.20;96856.00;;;;5067106;28;20203;-66
2021/03/21 06:57:34;;;;;;;10.60;7.82;;;-6.00;99.90;-6.90;96866.00;;;;5066544;28;20222;-66
2021/03/21 07:01:19;;;;;;;9.65;6.15;;;-5.70;99.90;-6.20;96838.00;;;;5065677;28;20207;-67
2021/03/21 07:05:04;;;;;;;8.23;5.10;;;-5.30;99.90;-5.30;96839.00;;;;5066104;28;20254;-65
2021/03/21 07:09:04;;;;;;;8.37;5.77;;;-4.70;99.90;-5.50;96837.00;;;;5065892;28;20457;-67
2021/03/21 07:12:30;;;;;;;7.70;4.33;;;-4.20;99.90;-5.80;96837.00;;;;5067228;28;20464;-67
2021/03/21 07:15:49;;;;;;;5.00;4.17;;;-4.00;99.90;-5.00;96835.00;;;;5066457;28;20811;-67
2021/03/21 07:19:34;;;;;;;4.13;3.80;;;-3.90;99.90;-5.00;96841.00;;;;5065164;28;20458;-66
2021/03/21 07:23:01;;;;;;;7.20;4.77;;;-3.60;99.90;-5.00;96839.00;;;;5062102;28;20443;-67
2021/03/21 07:26:27;;;;;;;6.20;5.30;;;-3.50;99.90;-4.70;96837.00;;;;5065139;28;20446;-68
2021/03/21 07:29:45;;;;;;;12.27;5.00;;;-3.30;99.90;-4.30;96842.00;;;;5047784;28;20428;-67
2021/03/21 07:33:24;;;;;;;10.23;6.77;;;-3.20;99.90;-4.10;96832.00;;;;5045047;28;20469;-67
2021/03/21 07:36:26;;;;;;;18.37;8.60;;;-3.00;99.90;-3.60;96831.00;;;;5043615;28;20475;-66
2021/03/21 07:39:29;;;;;;;12.37;8.37;;;-2.70;99.90;-3.30;96831.00;;;;5061118;28;20434;-68
2021/03/21 07:42:37;;;;;;;7.47;5.20;;;-2.40;99.90;-3.10;96837.00;;;;5066983;28;20434;-68
2021/03/21 07:46:03;;;;;;;6.17;4.83;;;-2.10;99.90;-3.00;96842.00;;;;5057731;28;20487;-66
2021/03/21 07:49:34;;;;;;;7.83;5.30;;;-1.90;99.90;-3.00;96839.00;;;;5068390;28;20471;-67
2021/03/21 07:52:49;;;;;;;8.13;5.67;;;-1.70;99.90;-3.10;96834.00;;;;5052162;28;20442;-67
2021/03/21 07:55:46;;;;;;;6.90;5.13;;;-1.60;99.90;-3.40;96833.00;;;;5064313;28;20423;-66
2021/03/21 07:58:43;;;;;;;14.30;4.50;;;-1.60;99.90;-2.60;96837.00;;;;5057473;28;20458;-66
2021/03/21 08:01:31;;;;;;;8.80;4.87;;;-1.60;99.90;-2.30;96837.00;;;;5069877;28;20445;-67
2021/03/21 08:04:24;;;;;;;6.17;4.27;;;-1.50;99.90;-2.10;96836.00;;;;5074983;28;20963;-67
2021/03/21 08:07:17;;;;;;;6.13;3.90;;;-1.30;99.90;-1.90;96827.00;;;;5056157;28;20470;-66
2021/03/21 08:10:22;;;;;;;5.33;4.13;;;-2.50;99.90;-1.70;96831.00;;;;5069179;28;20435;-67
2021/03/21 08:13:17;;;;;;;7.00;4.63;;;-0.90;99.90;-1.60;96820.00;;;;5064253;28;20425;-67
2021/03/21 08:16:10;;;;;;;5.47;4.97;;;-0.70;99.90;-1.50;96810.00;;;;5071157;28;20466;-66
2021/03/21 08:18:59;;;;;;;6.53;4.60;;;-0.40;99.90;-1.30;96806.00;;;;5062379;28;20996;-66
2021/03/21 08:21:49;;;;;;;7.23;5.53;;;-0.40;99.90;-1.20;96802.00;;;;5054010;28;20435;-66
2021/03/21 08:24:37;;;;;;;4.73;4.30;;;-0.30;99.90;-1.00;96810.00;;;;5057270;28;20431;-67
2021/03/21 08:27:28;;;;;;;9.80;5.77;;;-0.10;99.90;-0.70;96810.00;;;;5060342;28;20442;-67
2021/03/21 08:30:17;;;;;;;14.73;5.13;;;0.00;99.90;-0.40;96809.00;;;;5062674;28;20441;-67
2021/03/21 08:33:06;;;;;;;9.23;5.53;;;0.30;99.90;-0.20;96801.00;;;;5065573;28;20431;-67
2021/03/21 08:36:17;;;;;;;23.87;8.13;;;0.50;99.90;-0.20;96795.00;;;;5064290;28;20475;-67
2021/03/21 08:39:19;;;;;;;6.23;4.97;;;0.70;99.90;-0.20;96802.00;;;;5061971;28;21285;-67
2021/03/21 08:42:31;;;;;;;6.90;4.63;;;0.80;99.90;-0.20;96803.00;;;;5052931;28;20432;-67
2021/03/21 08:45:38;;;;;;;16.37;5.90;;;0.80;99.90;0.00;96805.00;;;;5061813;28;20438;-67
2021/03/21 08:48:31;;;;;;;5.37;4.70;;;1.00;99.90;0.10;96802.00;;;;5053775;28;20489;-66
2021/03/21 08:51:29;;;;;;;6.10;5.07;;;1.00;99.90;0.00;96799.00;;;;5066195;28;20449;-66
2021/03/21 08:54:23;;;;;;;8.13;5.23;;;1.10;99.90;0.30;96795.00;;;;5047342;28;20458;-66
2021/03/21 08:57:28;;;;;;;11.07;4.90;;;1.20;99.90;0.40;96782.00;;;;5059309;28;20475;-66
2021/03/21 09:00:33;;;;;;;14.50;5.33;;;1.30;99.90;0.80;96783.00;;;;5059901;28;20480;-67
2021/03/21 09:03:32;;;;;;;6.80;5.30;;;1.40;99.90;1.10;96769.00;;;;5058280;28;20430;-67
2021/03/21 09:06:33;;;;;;;10.50;5.57;;;1.70;99.90;1.50;96773.00;;;;5061595;28;20476;-67
2021/03/21 09:09:25;;;;;;;12.03;6.07;;;1.90;99.90;1.80;96772.00;;;;5051603;28;20446;-67
2021/03/21 09:12:30;;;;;;;16.10;7.73;;;2.20;99.90;1.90;96773.00;;;;5049966;28;20435;-67
2021/03/21 09:15:40;;;;;;;29.97;10.60;;;2.40;99.90;2.10;96780.00;;;;5058220;28;20427;-67
2021/03/21 09:18:32;;;;;;;31.23;14.10;;;2.70;99.90;2.20;96775.00;;;;5077172;28;20488;-66
2021/03/21 09:21:24;;;;;;;37.00;20.20;;;2.90;98.60;2.20;96764.00;;;;5088745;28;20999;-67
2021/03/21 09:24:22;;;;;;;53.43;23.87;;;3.10;97.70;2.50;96755.00;;;;5080876;28;20963;-67
2021/03/21 09:27:18;;;;;;;20.27;10.30;;;3.20;96.90;2.30;96755.00;;;;5067573;28;20451;-67
2021/03/21 09:30:19;;;;;;;17.13;9.60;;;3.30;96.00;2.50;96752.00;;;;5078767;28;20430;-67
2021/03/21 09:33:10;;;;;;;16.43;8.83;;;3.30;96.10;2.70;96745.00;;;;5067576;28;20442;-67
2021/03/21 09:36:08;;;;;;;22.77;8.90;;;3.40;96.50;2.70;96750.00;;;;5072970;28;20451;-67
2021/03/21 09:39:03;;;;;;;21.77;8.73;;;3.40;96.10;2.40;96749.00;;;;5082123;28;21085;-67
2021/03/21 09:41:53;;;;;;;17.47;9.07;;;3.50;95.30;2.40;96751.00;;;;5075483;28;20426;-67
2021/03/21 09:44:45;;;;;;;18.40;9.47;;;3.50;95.10;2.10;96748.00;;;;5075936;28;20827;-67
2021/03/21 09:47:38;;;;;;;15.60;7.47;;;3.40;94.30;2.30;96741.00;;;;5080200;28;20438;-66
2021/03/21 09:50:46;;;;;;;12.83;8.97;;;3.30;94.20;2.20;96727.00;;;;5080987;28;20473;-67
2021/03/21 09:54:05;;;;;;;14.80;8.10;;;3.30;94.30;2.40;96734.00;;;;5077389;28;20483;-67
2021/03/21 09:57:06;;;;;;;20.60;11.17;;;3.40;94.60;2.60;96732.00;;;;5069622;28;20481;-67
2021/03/21 09:59:56;;;;;;;24.07;10.43;;;3.40;94.60;2.40;96723.00;;;;5081871;28;20669;-67
2021/03/21 10:02:50;;;;;;;11.27;7.63;;;3.40;94.30;2.50;96728.00;;;;5075426;28;20437;-67
2021/03/21 10:05:47;;;;;;;12.30;7.40;;;3.40;93.30;2.80;96743.00;;;;5070956;28;20464;-67
2021/03/21 10:09:10;;;;;;;12.13;6.70;;;3.50;93.50;2.40;96727.00;;;;5082049;28;20462;-67
2021/03/21 10:12:06;;;;;;;10.37;6.27;;;3.40;93.00;2.30;96734.00;;;;5084171;28;20421;-68
2021/03/21 10:15:09;;;;;;;9.40;6.23;;;3.40;92.40;2.50;96721.00;;;;5069600;28;20422;-67
2021/03/21 10:18:00;;;;;;;9.30;6.70;;;3.40;93.00;2.40;96723.00;;;;5066257;28;20485;-67
2021/03/21 10:21:05;;;;;;;12.30;9.13;;;3.40;93.20;2.70;96723.00;;;;5071024;28;20425;-67
2021/03/21 10:24:35;;;;;;;24.83;10.50;;;3.50;93.40;2.90;96718.00;;;;5074918;28;20437;-67
2021/03/21 10:27:42;;;;;;;9.60;7.93;;;3.50;93.60;2.70;96719.00;;;;5078903;28;20453;-68
2021/03/21 10:30:33;;;;;;;13.00;7.77;;;3.60;92.50;3.00;96701.00;;;;5082897;28;20441;-68
2021/03/21 10:33:35;;;;;;;16.90;8.27;;;3.70;92.60;3.30;96714.00;;;;5078948;28;20426;-68
2021/03/21 10:36:44;;;;;;;17.40;9.13;;;3.90;92.40;3.50;96702.00;;;;5076888;28;20560;-66
2021/03/21 10:40:03;;;;;;;7.43;6.07;;;4.00;91.50;3.20;96699.00;;;;5065229;28;20457;-67
2021/03/21 10:42:53;;;;;;;9.53;6.03;;;4.10;89.20;3.00;96691.00;;;;5041610;28;20819;-67
2021/03/21 10:45:54;;;;;;;25.57;7.87;;;4.10;86.80;3.30;96691.00;;;;5066400;28;20200;-67
2021/03/21 10:48:54;;;;;;;11.67;6.87;;;4.10;88.10;3.90;96690.00;;;;5066333;28;20465;-67
2021/03/21 10:52:09;;;;;;;16.93;8.47;;;4.30;88.50;4.00;96681.00;;;;5065583;28;20445;-67
2021/03/21 10:55:28;;;;;;;10.50;7.03;;;4.50;87.80;3.80;96686.00;;;;5068286;28;20682;-67
2021/03/21 10:58:31;;;;;;;12.03;7.70;;;4.70;85.50;3.30;96676.00;;;;5065748;28;20227;-67
2021/03/21 11:01:34;;;;;;;19.13;8.80;;;4.60;84.10;3.30;96670.00;;;;5066286;28;20279;-67
2021/03/21 11:04:29;;;;;;;8.07;5.67;;;4.50;84.10;3.40;96676.00;;;;5065954;28;20595;-68
2021/03/21 11:07:19;;;;;;;16.23;8.80;;;4.50;82.60;3.30;96667.00;;;;5065946;28;20224;-68
2021/03/21 11:10:09;;;;;;;7.23;5.23;;;4.40;80.90;2.90;96671.00;;;;5083386;28;20244;-68
2021/03/21 11:12:57;;;;;;;6.47;5.07;;;4.30;78.80;2.90;96661.00;;;;5073448;28;20196;-68
2021/03/21 11:15:46;;;;;;;15.87;10.57;;;4.20;78.60;3.00;96664.00;;;;5071635;28;20203;-66
2021/03/21 11:18:35;;;;;;;21.27;7.33;;;4.20;80.10;3.40;96658.00;;;;5078116;28;20231;-66
2021/03/21 11:21:24;;;;;;;6.83;5.77;;;4.20;81.10;3.60;96668.00;;;;5083410;28;20203;-66
2021/03/21 11:24:38;;;;;;;6.07;5.03;;;4.30;80.90;3.30;96658.00;;;;5084379;28;20211;-67
2021/03/21 11:27:31;;;;;;;6.17;4.60;;;4.40;79.20;3.30;96646.00;;;;5072230;28;20219;-67
2021/03/21 11:30:27;;;;;;;22.33;7.23;;;4.30;78.30;3.30;96643.00;;;;5077568;28;20694;-67
2021/03/21 11:33:31;;;;;;;13.97;5.40;;;4.40;79.00;3.10;96650.00;;;;5075718;28;20698;-67
2021/03/21 11:36:26;;;;;;;4.83;4.33;;;4.30;78.90;2.90;96640.00;;;;5078256;28;20429;-67
2021/03/21 11:39:26;;;;;;;7.53;5.67;;;4.20;76.80;2.90;96640.00;;;;5076237;28;20222;-67
2021/03/21 11:42:22;;;;;;;5.60;4.63;;;4.10;77.30;2.70;96631.00;;;;5075849;28;20190;-67
2021/03/21 11:45:24;;;;;;;10.43;5.17;;;4.00;78.20;2.60;96631.00;;;;5062940;28;20216;-67
2021/03/21 11:48:26;;;;;;;10.27;5.10;;;3.90;78.40;2.70;96631.00;;;;5065727;28;20973;-67
2021/03/21 11:51:16;;;;;;;5.20;4.63;;;3.80;78.90;2.80;96617.00;;;;5064888;28;20445;-67
2021/03/21 11:54:05;;;;;;;9.17;4.70;;;3.80;79.40;3.00;96622.00;;;;5069159;28;20457;-67
2021/03/21 11:57:19;;;;;;;6.33;5.17;;;3.80;80.30;3.10;96623.00;;;;5080196;28;21259;-67
2021/03/21 12:00:21;;;;;;;5.60;4.43;;;3.90;81.00;3.10;96610.00;;;;5087854;28;20433;-66
2021/03/21 12:03:14;;;;;;;5.60;4.87;;;4.00;81.60;3.20;96612.00;;;;5078630;28;21284;-67
2021/03/21 12:06:06;;;;;;;8.73;4.73;;;4.00;81.50;2.80;96596.00;;;;5081085;28;20449;-67
2021/03/21 12:08:54;;;;;;;6.73;5.23;;;4.20;80.30;2.30;96585.00;;;;5083470;28;20441;-67
2021/03/21 12:11:44;;;;;;;8.50;5.47;;;5.20;81.40;2.70;96587.00;;;;5067606;28;20443;-67
2021/03/21 12:14:46;;;;;;;8.03;5.07;;;3.90;80.70;1.70;96568.00;;;;5076575;28;20968;-67
2021/03/21 12:17:42;;;;;;;17.10;12.10;;;3.70;80.10;1.60;96561.00;;;;5078774;28;20464;-67
2021/03/21 12:20:48;;;;;;;8.43;6.40;;;3.30;82.10;1.70;96563.00;;;;5078881;28;20437;-67
2021/03/21 12:23:45;;;;;;;5.27;4.77;;;3.20;81.60;2.40;96571.00;;;;5074777;28;20460;-67
2021/03/21 12:26:51;;;;;;;9.37;5.50;;;3.20;82.90;2.30;96560.00;;;;5082902;28;20844;-67
2021/03/21 12:29:46;;;;;;;6.53;4.83;;;3.40;82.70;1.90;96562.00;;;;5078995;28;20852;-67
2021/03/21 12:32:45;;;;;;;14.60;8.30;;;3.40;80.90;2.20;96557.00;;;;5061921;28;20437;-66
2021/03/21 12:35:41;;;;;;;6.63;5.10;;;3.30;82.10;1.80;96548.00;;;;5065179;28;20527;-66
2021/03/21 12:38:33;;;;;;;5.33;4.73;;;3.30;82.60;1.60;96541.00;;;;5063500;28;20477;-66
2021/03/21 12:41:31;;;;;;;7.63;5.47;;;3.10;83.50;1.50;96544.00;;;;5063939;28;20496;-66
2021/03/21 12:44:26;;;;;;;6.97;4.97;;;3.00;85.30;1.60;96533.00;;;;5065213;28;20945;-66
2021/03/21 12:47:30;;;;;;;5.63;5.10;;;2.90;85.50;1.60;96531.00;;;;5064151;28;20840;-67
2021/03/21 12:50:40;;;;;;;11.27;6.17;;;2.90;86.80;1.50;96523.00;;;;5078477;28;20433;-67
2021/03/21 12:53:31;;;;;;;20.80;11.30;;;2.80;87.80;1.70;96521.00;;;;5065711;28;20453;-67
2021/03/21 12:56:18;;;;;;;9.50;6.37;;;2.80;90.10;1.90;96521.00;;;;5080207;28;20933;-68
2021/03/21 12:59:07;;;;;;;7.53;5.60;;;2.90;90.40;2.20;96513.00;;;;5077466;28;20437;-68
2021/03/21 13:01:55;;;;;;;11.60;7.07;;;3.00;91.60;2.90;96513.00;;;;5076888;28;20437;-67
2021/03/21 13:04:43;;;;;;;12.80;6.13;;;3.30;92.50;3.30;96514.00;;;;5082295;28;20533;-68
2021/03/21 13:07:32;;;;;;;6.93;5.17;;;3.60;93.00;3.60;96497.00;;;;5076061;28;20536;-66
2021/03/21 13:10:20;;;;;;;15.80;5.63;;;3.90;93.80;3.90;96494.00;;;;5071925;28;20445;-68
2021/03/21 13:13:09;;;;;;;7.40;4.93;;;4.30;93.60;3.90;96489.00;;;;5073414;28;20429;-66
2021/03/21 13:15:57;;;;;;;4.70;4.17;;;4.50;93.00;4.00;96480.00;;;;5079185;28;20968;-67
2021/03/21 13:18:45;;;;;;;5.10;4.60;;;4.70;92.00;4.10;96479.00;;;;5074227;28;20246;-67
2021/03/21 13:21:33;;;;;;;6.40;4.03;;;4.90;91.60;4.30;96480.00;;;;5082868;28;20195;-67